createdAt,value
2023-05-07T00:00:32.611Z,25.15
2023-05-07T00:02:59.228Z,24.27
2023-05-07T00:05:25.815Z,25.55
2023-05-07T00:07:53.650Z,24.92
2023-05-07T00:10:20.473Z,25.42
2023-05-07T00:12:47.045Z,24.38
2023-05-07T00:15:13.891Z,24.48
2023-05-07T00:17:40.478Z,24.45
2023-05-07T00:20:08.282Z,24.80
2023-05-07T00:22:34.945Z,24.88
2023-05-07T00:25:01.598Z,23.63
2023-05-07T00:27:28.151Z,23.92
2023-05-07T00:29:54.711Z,23.92
2023-05-07T00:32:21.317Z,25.25
2023-05-07T00:34:47.891Z,23.90
2023-05-07T00:37:14.457Z,23.75
2023-05-07T00:39:41.011Z,23.65
2023-05-07T00:42:07.525Z,23.38
2023-05-07T00:44:34.134Z,23.58
2023-05-07T00:47:04.400Z,22.50
2023-05-07T00:49:40.987Z,22.90
2023-05-07T00:52:08.896Z,22.92
2023-05-07T00:54:36.469Z,23.02
2023-05-07T00:57:04.601Z,22.88
2023-05-07T00:59:33.177Z,21.65
2023-05-07T01:02:00.473Z,23.73
2023-05-07T01:04:27.855Z,22.45
2023-05-07T01:06:59.832Z,21.75
2023-05-07T01:09:27.888Z,22.05
2023-05-07T01:11:54.989Z,21.98
2023-05-07T01:14:21.821Z,22.88
2023-05-07T01:16:49.313Z,21.80
2023-05-07T01:19:18.187Z,21.08
2023-05-07T01:21:48.172Z,21.70
2023-05-07T01:24:15.756Z,21.98
2023-05-07T01:26:43.725Z,21.25
2023-05-07T01:29:10.987Z,21.25
2023-05-07T01:31:38.656Z,21.75
2023-05-07T01:34:07.898Z,21.13
2023-05-07T01:36:34.510Z,20.60
2023-05-07T01:39:01.515Z,19.83
2023-05-07T01:41:28.227Z,19.45
2023-05-07T01:43:57.522Z,19.92
2023-05-07T01:46:24.540Z,20.10
2023-05-07T01:48:51.825Z,20.30
2023-05-07T01:51:18.548Z,20.30
2023-05-07T01:53:46.716Z,19.92
2023-05-07T01:56:13.304Z,18.48
2023-05-07T01:58:39.811Z,20.10
2023-05-07T02:01:06.333Z,19.88
2023-05-07T02:03:33.061Z,20.35
2023-05-07T02:05:59.698Z,18.20
2023-05-07T02:08:26.235Z,18.98
2023-05-07T02:10:52.938Z,18.52
2023-05-07T02:13:20.871Z,18.77
2023-05-07T02:15:51.278Z,18.10
2023-05-07T02:18:18.081Z,18.13
2023-05-07T02:20:44.666Z,17.83
2023-05-07T02:23:11.191Z,16.83
2023-05-07T02:25:37.821Z,18.20
2023-05-07T02:28:04.396Z,17.20
2023-05-07T02:30:30.920Z,17.10
2023-05-07T02:32:57.527Z,16.73
2023-05-07T02:35:25.798Z,18.10
2023-05-07T02:37:52.391Z,17.45
2023-05-07T02:40:19.079Z,17.40
2023-05-07T02:42:45.747Z,17.15
2023-05-07T02:45:12.419Z,17.48
2023-05-07T02:47:38.940Z,17.23
2023-05-07T02:50:06.116Z,15.60
2023-05-07T02:52:32.760Z,15.88
2023-05-07T02:54:59.275Z,16.40
2023-05-07T02:57:25.851Z,15.77
2023-05-07T02:59:53.021Z,16.20
2023-05-07T03:02:19.632Z,16.98
2023-05-07T03:04:46.136Z,16.48
2023-05-07T03:07:12.631Z,16.95
2023-05-07T03:09:39.158Z,16.13
2023-05-07T03:12:05.837Z,15.80
2023-05-07T03:14:32.380Z,16.77
2023-05-07T03:16:58.908Z,15.70
2023-05-07T03:19:25.442Z,14.65
2023-05-07T03:21:52.103Z,14.75
2023-05-07T03:24:18.652Z,15.23
2023-05-07T03:26:45.319Z,15.23
2023-05-07T03:29:11.885Z,14.85
2023-05-07T03:31:38.629Z,15.27
2023-05-07T03:34:05.153Z,15.32
2023-05-07T03:36:31.645Z,14.65
2023-05-07T03:38:58.190Z,15.25
2023-05-07T03:41:24.781Z,13.75
2023-05-07T03:43:51.264Z,13.93
2023-05-07T03:46:17.815Z,14.48
2023-05-07T03:48:44.348Z,14.27
2023-05-07T03:51:11.208Z,12.48
2023-05-07T03:53:38.054Z,13.50
2023-05-07T03:56:04.865Z,13.00
2023-05-07T03:58:31.349Z,13.35
2023-05-07T04:00:57.875Z,13.02
2023-05-07T04:03:24.504Z,13.55
2023-05-07T04:05:51.100Z,13.98
2023-05-07T04:08:17.615Z,13.00
2023-05-07T04:10:44.191Z,12.60
2023-05-07T04:13:10.828Z,12.02
2023-05-07T04:15:37.487Z,13.70
2023-05-07T04:18:04.127Z,13.27
2023-05-07T04:20:30.686Z,12.93
2023-05-07T04:22:57.214Z,12.70
2023-05-07T04:25:27.750Z,12.10
2023-05-07T04:27:55.465Z,13.20
2023-05-07T04:30:23.860Z,11.70
2023-05-07T04:32:50.416Z,12.13
2023-05-07T04:35:17.187Z,11.20
2023-05-07T04:37:43.743Z,11.88
2023-05-07T04:40:11.134Z,11.88
2023-05-07T04:42:37.896Z,12.05
2023-05-07T04:45:05.939Z,12.43
2023-05-07T04:47:32.707Z,11.50
2023-05-07T04:49:59.283Z,10.90
2023-05-07T04:52:27.336Z,10.43
2023-05-07T04:54:54.236Z,10.70
2023-05-07T04:57:21.006Z,10.70
2023-05-07T04:59:47.599Z,11.20
2023-05-07T05:02:14.134Z,11.00
2023-05-07T05:04:40.711Z,11.85
2023-05-07T05:07:07.237Z,10.80
2023-05-07T05:09:33.817Z,10.70
2023-05-07T05:12:00.729Z,11.38
2023-05-07T05:14:27.286Z,10.75
2023-05-07T05:16:53.860Z,10.95
2023-05-07T05:19:20.465Z,10.15
2023-05-07T05:21:47.123Z,11.27
2023-05-07T05:24:13.709Z,11.07
2023-05-07T05:26:40.317Z,10.65
2023-05-07T05:29:07.379Z,10.55
2023-05-07T05:31:34.677Z,10.32
2023-05-07T05:34:01.340Z,10.68
2023-05-07T05:36:27.923Z,10.52
2023-05-07T05:38:54.446Z,9.60
2023-05-07T05:41:21.612Z,10.43
2023-05-07T05:43:48.155Z,10.23
2023-05-07T05:46:14.792Z,9.82
2023-05-07T05:48:41.568Z,10.00
2023-05-07T05:51:08.090Z,10.10
2023-05-07T05:53:34.621Z,9.32
2023-05-07T05:56:01.208Z,9.68
2023-05-07T05:58:28.062Z,9.02
2023-05-07T06:00:54.665Z,9.63
2023-05-07T06:03:21.306Z,9.95
2023-05-07T06:05:47.929Z,8.73
2023-05-07T06:08:14.484Z,9.52
2023-05-07T06:10:41.234Z,9.13
2023-05-07T06:13:07.976Z,8.30
2023-05-07T06:15:34.548Z,8.73
2023-05-07T06:18:01.115Z,9.57
2023-05-07T06:20:27.655Z,9.35
2023-05-07T06:22:54.252Z,9.18
2023-05-07T06:25:21.032Z,9.43
2023-05-07T06:27:47.824Z,9.63
2023-05-07T06:30:14.367Z,8.00
2023-05-07T06:32:42.031Z,8.18
2023-05-07T06:35:09.118Z,9.02
2023-05-07T06:37:35.621Z,8.27
2023-05-07T06:40:02.193Z,8.48
2023-05-07T06:42:28.727Z,8.48
2023-05-07T06:44:55.996Z,8.13
2023-05-07T06:47:22.623Z,8.13
2023-05-07T06:49:49.201Z,8.23
2023-05-07T06:52:15.683Z,8.18
2023-05-07T06:54:42.272Z,8.43
2023-05-07T06:57:08.833Z,8.68
2023-05-07T06:59:35.482Z,7.88
2023-05-07T07:02:02.107Z,8.00
2023-05-07T07:04:29.301Z,8.13
2023-05-07T07:06:57.658Z,7.88
2023-05-07T07:09:24.293Z,7.53
2023-05-07T07:11:50.868Z,7.65
2023-05-07T07:14:17.392Z,7.00
2023-05-07T07:16:43.911Z,7.15
2023-05-07T07:19:10.467Z,7.50
2023-05-07T07:21:37.090Z,7.47
2023-05-07T07:24:03.796Z,7.40
2023-05-07T07:26:30.444Z,7.22
2023-05-07T07:28:56.948Z,7.82
2023-05-07T07:31:23.520Z,7.35
2023-05-07T07:33:53.067Z,7.70
2023-05-07T07:36:19.993Z,7.35
2023-05-07T07:38:46.532Z,7.00
2023-05-07T07:41:13.035Z,7.38
2023-05-07T07:43:39.623Z,8.20
2023-05-07T07:46:06.375Z,8.55
2023-05-07T07:48:33.006Z,9.35
2023-05-07T07:50:59.556Z,10.25
2023-05-07T07:53:26.337Z,11.95
2023-05-07T07:55:54.395Z,11.77
2023-05-07T07:58:25.791Z,12.48
2023-05-07T08:00:52.382Z,12.63
2023-05-07T08:03:18.986Z,13.15
2023-05-07T08:05:45.835Z,14.57
2023-05-07T08:08:12.373Z,18.98
2023-05-07T08:10:40.153Z,20.30
2023-05-07T08:13:07.151Z,20.27
2023-05-07T08:15:33.718Z,22.08
2023-05-07T08:18:01.276Z,21.40
2023-05-07T08:20:28.214Z,19.65
2023-05-07T08:22:54.774Z,19.63
2023-05-07T08:25:21.354Z,20.13
2023-05-07T08:27:47.900Z,19.48
2023-05-07T08:30:15.050Z,20.38
2023-05-07T08:32:41.664Z,20.15
2023-05-07T08:35:08.630Z,19.05
2023-05-07T08:37:35.261Z,16.40
2023-05-07T08:40:01.908Z,14.48
2023-05-07T08:42:30.387Z,18.25
2023-05-07T08:44:58.576Z,18.02
2023-05-07T08:47:30.920Z,19.13
2023-05-07T08:49:57.510Z,21.35
2023-05-07T08:52:24.310Z,20.58
2023-05-07T08:54:51.121Z,19.20
2023-05-07T08:57:17.676Z,19.85
2023-05-07T08:59:44.201Z,20.85
2023-05-07T09:02:12.432Z,20.42
2023-05-07T09:04:39.131Z,22.70
2023-05-07T09:07:06.438Z,22.27
2023-05-07T09:09:36.450Z,18.95
2023-05-07T09:12:04.672Z,20.85
2023-05-07T09:14:34.515Z,19.85
2023-05-07T09:17:01.252Z,19.77
2023-05-07T09:19:28.464Z,19.55
2023-05-07T09:22:06.396Z,19.17
2023-05-07T09:24:36.055Z,20.75
2023-05-07T09:27:03.454Z,21.33
2023-05-07T09:29:31.226Z,19.58
2023-05-07T09:31:57.803Z,19.33
2023-05-07T09:34:24.368Z,19.02
2023-05-07T09:36:51.122Z,18.35
2023-05-07T09:39:17.714Z,19.55
2023-05-07T09:41:46.258Z,18.45
2023-05-07T09:44:14.829Z,18.80
2023-05-07T09:46:45.578Z,18.20
2023-05-07T09:49:22.883Z,21.55
2023-05-07T09:51:51.267Z,17.95
2023-05-07T09:54:18.894Z,19.15
2023-05-07T09:56:53.190Z,18.73
2023-05-07T09:59:21.265Z,18.80
2023-05-07T10:01:47.800Z,19.30
2023-05-07T10:04:15.640Z,18.50
2023-05-07T10:06:43.610Z,18.08
2023-05-07T10:09:10.814Z,17.73
2023-05-07T10:11:37.891Z,17.00
2023-05-07T10:14:06.834Z,18.75
2023-05-07T10:16:37.253Z,19.00
2023-05-07T10:19:05.619Z,18.10
2023-05-07T10:21:36.725Z,19.52
2023-05-07T10:24:15.689Z,15.63
2023-05-07T10:26:46.483Z,17.60
2023-05-07T10:29:30.850Z,18.67
2023-05-07T10:32:03.171Z,17.95
2023-05-07T10:34:36.878Z,18.70
2023-05-07T10:37:04.772Z,19.45
2023-05-07T10:39:31.823Z,18.45
2023-05-07T10:42:07.920Z,18.90
2023-05-07T10:44:34.497Z,18.88
2023-05-07T10:47:09.852Z,17.30
2023-05-07T10:49:38.243Z,17.10
2023-05-07T10:52:19.785Z,17.55
2023-05-07T10:54:47.243Z,16.30
2023-05-07T10:57:36.587Z,16.25
2023-05-07T11:00:04.608Z,15.27
2023-05-07T11:03:01.982Z,15.25
2023-05-07T11:05:31.392Z,14.30
2023-05-07T11:08:02.147Z,13.18
2023-05-07T11:10:52.392Z,13.98
2023-05-07T11:13:20.143Z,13.15
2023-05-07T11:15:48.387Z,13.48
2023-05-07T11:18:18.942Z,12.40
2023-05-07T11:20:53.490Z,13.00
2023-05-07T11:23:35.673Z,13.35
2023-05-07T11:26:10.174Z,13.70
2023-05-07T11:28:41.411Z,15.70
2023-05-07T11:31:09.128Z,17.48
2023-05-07T11:33:37.159Z,17.85
2023-05-07T11:36:05.542Z,17.00
2023-05-07T11:38:36.100Z,15.13
2023-05-07T11:41:03.555Z,16.58
2023-05-07T11:43:30.097Z,13.90
2023-05-07T11:46:12.373Z,13.25
2023-05-07T11:48:40.054Z,12.48
2023-05-07T11:51:09.620Z,11.65
2023-05-07T11:53:38.792Z,11.35
2023-05-07T11:56:13.427Z,11.80
2023-05-07T11:58:41.255Z,11.13
2023-05-07T12:01:12.307Z,11.55
2023-05-07T12:03:45.850Z,11.02
2023-05-07T12:08:41.885Z,9.27
2023-05-07T12:11:10.721Z,7.95
2023-05-07T12:13:37.396Z,8.60
2023-05-07T12:16:05.440Z,10.05
2023-05-07T12:18:32.245Z,10.05
2023-05-07T12:21:00.160Z,9.55
2023-05-07T12:23:26.919Z,9.90
2023-05-07T12:25:53.445Z,10.55
2023-05-07T12:28:20.585Z,10.13
2023-05-07T12:30:49.217Z,8.63
2023-05-07T12:33:20.228Z,8.15
2023-05-07T12:35:48.835Z,8.43
2023-05-07T12:38:18.313Z,7.97
2023-05-07T12:40:46.319Z,8.23
2023-05-07T12:43:26.809Z,7.35
2023-05-07T12:45:57.048Z,7.32
2023-05-07T12:48:24.825Z,6.53
2023-05-07T12:50:52.416Z,7.38
2023-05-07T12:53:22.316Z,9.52
2023-05-07T12:55:51.960Z,9.88
2023-05-07T12:58:26.005Z,7.60
2023-05-07T13:00:53.306Z,7.35
2023-05-07T13:03:30.734Z,7.70
2023-05-07T13:05:59.872Z,6.82
2023-05-07T13:08:33.108Z,6.50
2023-05-07T13:11:05.552Z,6.55
2023-05-07T13:13:33.354Z,6.43
2023-05-07T13:16:01.466Z,6.32
2023-05-07T13:18:30.177Z,6.05
2023-05-07T13:20:57.108Z,5.80
2023-05-07T13:23:23.810Z,5.63
2023-05-07T13:25:51.508Z,5.50
2023-05-07T13:28:18.142Z,5.40
2023-05-07T13:30:44.711Z,5.70
2023-05-07T13:33:11.258Z,4.15
2023-05-07T13:35:37.923Z,5.78
2023-05-07T13:38:04.766Z,5.05
2023-05-07T13:40:31.771Z,4.45
2023-05-07T13:43:00.681Z,4.53
2023-05-07T13:45:27.977Z,3.80
2023-05-07T13:47:54.624Z,4.30
2023-05-07T13:50:21.222Z,4.97
2023-05-07T13:52:51.521Z,4.63
2023-05-07T13:55:19.241Z,4.80
2023-05-07T13:57:46.392Z,4.97
2023-05-07T14:00:14.091Z,4.38
2023-05-07T14:02:41.484Z,4.38
2023-05-07T14:05:09.891Z,5.10
2023-05-07T14:07:36.907Z,4.30
2023-05-07T14:10:03.967Z,4.55
2023-05-07T14:12:30.709Z,4.80
2023-05-07T14:14:57.510Z,3.22
2023-05-07T14:17:26.424Z,3.72
2023-05-07T14:19:55.268Z,3.83
2023-05-07T14:22:23.613Z,3.05
2023-05-07T14:25:05.368Z,3.10
2023-05-07T14:27:33.517Z,3.58
2023-05-07T14:30:00.291Z,3.15
2023-05-07T14:32:26.954Z,3.55
2023-05-07T14:34:53.493Z,3.28
2023-05-07T14:37:21.207Z,3.35
2023-05-07T14:39:50.718Z,3.35
2023-05-07T14:42:18.219Z,3.45
2023-05-07T14:44:46.416Z,3.10
2023-05-07T14:47:13.722Z,3.33
2023-05-07T14:49:41.535Z,3.30
2023-05-07T14:52:09.132Z,3.35
2023-05-07T14:54:39.031Z,3.60
2023-05-07T14:57:06.886Z,3.30
2023-05-07T14:59:33.708Z,3.00
2023-05-07T15:02:05.405Z,2.63
2023-05-07T15:04:33.642Z,3.08
2023-05-07T15:07:00.980Z,2.80
2023-05-07T15:09:27.685Z,3.30
2023-05-07T15:11:54.251Z,2.78
2023-05-07T15:14:22.734Z,2.70
2023-05-07T15:16:49.928Z,2.70
2023-05-07T15:19:17.952Z,2.70
2023-05-07T15:21:44.708Z,2.38
2023-05-07T15:24:11.409Z,2.70
2023-05-07T15:26:37.922Z,2.40
2023-05-07T15:29:09.122Z,2.13
2023-05-07T15:31:35.956Z,2.00
2023-05-07T15:34:02.559Z,2.60
2023-05-07T15:36:29.141Z,2.00
2023-05-07T15:38:55.742Z,2.33
2023-05-07T15:41:22.376Z,2.67
2023-05-07T15:43:51.202Z,2.17
2023-05-07T15:46:24.467Z,2.80
2023-05-07T15:48:54.918Z,8.88
2023-05-07T15:51:22.750Z,7.43
2023-05-07T15:53:50.005Z,8.68
2023-05-07T15:56:16.524Z,11.35
2023-05-07T15:58:43.072Z,14.35
2023-05-07T16:01:09.707Z,11.80
2023-05-07T16:03:36.729Z,12.55
2023-05-07T16:06:03.514Z,12.38
2023-05-07T16:08:30.140Z,15.30
2023-05-07T16:10:56.720Z,16.20
2023-05-07T16:13:24.874Z,15.35
2023-05-07T16:15:58.401Z,14.82
2023-05-07T16:18:25.204Z,11.18
2023-05-07T16:20:52.022Z,11.55
2023-05-07T16:23:19.237Z,11.63
2023-05-07T16:25:45.883Z,13.70
2023-05-07T16:28:12.568Z,16.70
2023-05-07T16:30:39.142Z,16.20
2023-05-07T16:33:05.790Z,16.55
2023-05-07T16:35:32.391Z,14.43
2023-05-07T16:37:59.054Z,14.07
2023-05-07T16:40:25.719Z,12.40
2023-05-07T16:42:54.790Z,14.63
2023-05-07T16:45:24.948Z,14.32
2023-05-07T16:47:51.648Z,14.20
2023-05-07T16:50:18.367Z,14.00
2023-05-07T16:52:45.078Z,15.73
2023-05-07T16:55:11.954Z,14.27
2023-05-07T16:57:38.802Z,21.38
2023-05-07T17:00:07.463Z,21.27
2023-05-07T17:02:35.683Z,19.73
2023-05-07T17:05:02.450Z,21.73
2023-05-07T17:07:28.989Z,22.42
2023-05-07T17:09:55.564Z,19.60
2023-05-07T17:12:22.752Z,18.83
2023-05-07T17:14:49.518Z,20.88
2023-05-07T17:17:16.196Z,21.05
2023-05-07T17:19:42.767Z,18.42
2023-05-07T17:22:09.334Z,19.23
2023-05-07T17:24:36.515Z,19.70
2023-05-07T17:27:03.100Z,19.20
2023-05-07T17:29:30.941Z,19.33
2023-05-07T17:31:57.538Z,18.52
2023-05-07T17:34:24.260Z,18.55
2023-05-07T17:36:50.866Z,17.65
2023-05-07T17:39:17.494Z,16.52
2023-05-07T17:41:44.024Z,17.70
2023-05-07T17:44:10.565Z,17.67
2023-05-07T17:46:37.138Z,19.77
2023-05-07T17:49:03.769Z,17.35
2023-05-07T17:51:36.087Z,17.60
2023-05-07T17:54:09.188Z,14.32
2023-05-07T17:56:37.164Z,16.70
2023-05-07T17:59:03.715Z,15.27
2023-05-07T18:01:30.934Z,16.20
2023-05-07T18:03:57.694Z,15.45
2023-05-07T18:06:24.307Z,15.90
2023-05-07T18:08:50.989Z,15.27
2023-05-07T18:11:17.692Z,15.82
2023-05-07T18:13:44.308Z,16.92
2023-05-07T18:16:10.996Z,17.85
2023-05-07T18:18:37.693Z,17.88
2023-05-07T18:21:04.655Z,19.23
2023-05-07T18:23:31.248Z,19.98
2023-05-07T18:25:57.798Z,19.63
2023-05-07T18:28:24.386Z,19.33
2023-05-07T18:30:50.964Z,17.98
2023-05-07T18:33:17.648Z,18.20
2023-05-07T18:35:44.449Z,16.33
2023-05-07T18:38:11.122Z,16.40
2023-05-07T18:40:37.887Z,26.90
2023-05-07T18:43:07.033Z,22.75
2023-05-07T18:45:34.343Z,20.40
2023-05-07T18:48:01.578Z,19.30
2023-05-07T18:50:28.125Z,19.48
2023-05-07T18:52:54.728Z,18.23
2023-05-07T18:55:22.123Z,17.85
2023-05-07T18:57:49.506Z,19.08
2023-05-07T19:00:16.506Z,19.10
2023-05-07T19:02:43.100Z,19.17
2023-05-07T19:05:09.757Z,18.10
2023-05-07T19:07:36.453Z,18.40
2023-05-07T19:10:06.006Z,17.02
2023-05-07T19:12:32.869Z,29.83
2023-05-07T19:14:59.402Z,22.23
2023-05-07T19:17:25.979Z,21.42
2023-05-07T19:19:52.526Z,19.70
2023-05-07T19:22:19.104Z,20.77
2023-05-07T19:24:45.687Z,19.00
2023-05-07T19:27:12.277Z,16.65
2023-05-07T19:29:39.792Z,16.10
2023-05-07T19:32:06.451Z,16.58
2023-05-07T19:34:33.111Z,16.90
2023-05-07T19:36:59.655Z,15.85
2023-05-07T19:39:26.234Z,15.55
2023-05-07T19:41:52.768Z,15.52
2023-05-07T19:44:19.333Z,14.45
2023-05-07T19:46:47.738Z,15.32
2023-05-07T19:49:14.469Z,14.32
2023-05-07T19:51:41.294Z,14.23
2023-05-07T19:54:07.826Z,15.95
2023-05-07T19:56:34.414Z,16.60
2023-05-07T19:59:01.054Z,17.25
2023-05-07T20:01:29.237Z,16.35
2023-05-07T20:03:56.280Z,17.52
2023-05-07T20:06:23.496Z,16.75
2023-05-07T20:08:50.768Z,17.52
2023-05-07T20:11:17.580Z,15.73
2023-05-07T20:13:44.109Z,17.27
2023-05-07T20:16:11.009Z,16.42
2023-05-07T20:18:37.654Z,16.33
2023-05-07T20:21:04.987Z,16.85
2023-05-07T20:23:31.624Z,17.17
2023-05-07T20:25:59.097Z,17.63
2023-05-07T20:28:25.780Z,16.83
2023-05-07T20:30:52.454Z,17.00
2023-05-07T20:33:19.083Z,17.27
2023-05-07T20:35:45.642Z,17.80
2023-05-07T20:38:12.246Z,17.48
2023-05-07T20:40:38.943Z,17.75
2023-05-07T20:43:06.497Z,18.63
2023-05-07T20:45:33.309Z,18.58
2023-05-07T20:48:01.138Z,18.42
2023-05-07T20:50:27.851Z,18.80
2023-05-07T20:52:54.420Z,20.15
2023-05-07T20:55:21.091Z,19.85
2023-05-07T20:57:47.707Z,18.90
2023-05-07T21:00:15.839Z,20.48
2023-05-07T21:02:43.625Z,20.33
2023-05-07T21:05:10.174Z,19.88
2023-05-07T21:07:36.766Z,20.13
2023-05-07T21:10:03.517Z,20.73
2023-05-07T21:12:30.052Z,20.98
2023-05-07T21:14:56.876Z,20.98
2023-05-07T21:17:23.405Z,19.80
2023-05-07T21:19:50.096Z,20.10
2023-05-07T21:22:16.589Z,20.05
2023-05-07T21:24:43.200Z,20.77
2023-05-07T21:27:09.816Z,19.15
2023-05-07T21:29:36.438Z,20.83
2023-05-07T21:32:03.785Z,19.85
2023-05-07T21:34:30.382Z,19.15
2023-05-07T21:36:57.062Z,19.92
2023-05-07T21:39:24.752Z,19.77
2023-05-07T21:41:51.294Z,19.67
2023-05-07T21:44:17.880Z,19.45
2023-05-07T21:46:44.601Z,19.27
2023-05-07T21:49:11.923Z,19.55
2023-05-07T21:51:38.504Z,19.05
2023-05-07T21:54:05.113Z,18.05
2023-05-07T21:56:31.610Z,19.23
2023-05-07T21:58:58.192Z,19.60
2023-05-07T22:01:24.911Z,17.83
2023-05-07T22:03:51.996Z,18.52
2023-05-07T22:06:21.708Z,17.42
2023-05-07T22:08:51.467Z,17.67
2023-05-07T22:11:18.197Z,17.58
2023-05-07T22:13:44.776Z,17.88
2023-05-07T22:16:11.337Z,18.58
2023-05-07T22:18:37.893Z,17.02
2023-05-07T22:21:04.616Z,17.40
2023-05-07T22:23:31.217Z,17.83
2023-05-07T22:25:58.285Z,17.85
2023-05-07T22:28:24.881Z,17.10
2023-05-07T22:30:51.377Z,17.20
2023-05-07T22:33:18.017Z,17.55
2023-05-07T22:35:44.556Z,17.17
2023-05-07T22:38:11.175Z,15.93
2023-05-07T22:40:37.690Z,16.80
2023-05-07T22:43:04.231Z,15.43
2023-05-07T22:45:30.827Z,16.38
2023-05-07T22:47:57.440Z,15.90
2023-05-07T22:50:24.142Z,15.43
2023-05-07T22:52:50.749Z,15.35
2023-05-07T22:55:17.519Z,15.57
2023-05-07T22:57:44.117Z,15.45
2023-05-07T23:00:11.974Z,14.93
2023-05-07T23:02:38.937Z,15.43
2023-05-07T23:05:05.723Z,15.18
2023-05-07T23:07:32.258Z,14.63
2023-05-07T23:09:59.106Z,13.88
2023-05-07T23:12:25.741Z,14.40
2023-05-07T23:14:52.303Z,13.90
2023-05-07T23:17:18.822Z,13.57
2023-05-07T23:19:45.372Z,12.95
2023-05-07T23:22:12.312Z,13.75
2023-05-07T23:24:39.246Z,13.40
2023-05-07T23:27:06.655Z,13.27
2023-05-07T23:29:33.462Z,13.68
2023-05-07T23:32:00.714Z,14.00
2023-05-07T23:34:27.489Z,13.30
2023-05-07T23:36:54.240Z,13.13
2023-05-07T23:39:20.948Z,13.52
2023-05-07T23:41:47.527Z,13.73
2023-05-07T23:44:16.494Z,13.60
2023-05-07T23:46:44.434Z,12.73
2023-05-07T23:49:11.292Z,12.75
2023-05-07T23:51:37.994Z,12.27
2023-05-07T23:54:05.002Z,12.73
2023-05-07T23:56:31.625Z,11.80
2023-05-07T23:58:58.212Z,12.77
